createdAt,value
2019-01-18T00:01:21.586Z,0.30
2019-01-18T00:04:09.258Z,0.30
2019-01-18T00:06:56.740Z,0.30
2019-01-18T00:09:44.623Z,0.30
2019-01-18T00:12:31.742Z,0.20
2019-01-18T00:15:20.444Z,0.20
2019-01-18T00:18:08.195Z,0.20
2019-01-18T00:20:55.883Z,0.20
2019-01-18T00:23:45.379Z,0.10
2019-01-18T00:26:33.375Z,0.10
2019-01-18T00:29:21.529Z,0.10
2019-01-18T00:32:11.326Z,0.10
2019-01-18T00:35:00.089Z,0.10
2019-01-18T00:37:49.695Z,0.10
2019-01-18T00:40:39.125Z,0.10
2019-01-18T00:43:26.738Z,0.10
2019-01-18T00:46:14.288Z,0.10
2019-01-18T00:49:01.945Z,0.10
2019-01-18T00:51:51.353Z,0.10
2019-01-18T00:54:41.491Z,0.10
2019-01-18T00:57:31.352Z,0.10
2019-01-18T01:00:21.586Z,0.10
2019-01-18T01:03:12.669Z,0.00
2019-01-18T01:06:01.871Z,0.00
2019-01-18T01:08:49.667Z,0.00
2019-01-18T01:11:38.355Z,0.10
2019-01-18T01:14:26.151Z,0.00
2019-01-18T01:17:19.692Z,-0.10
2019-01-18T01:20:11.999Z,-0.10
2019-01-18T01:22:59.691Z,-0.20
2019-01-18T01:25:47.214Z,-0.20
2019-01-18T01:28:34.518Z,-0.30
2019-01-18T01:31:22.557Z,-0.40
2019-01-18T01:34:10.143Z,-0.40
2019-01-18T01:37:00.415Z,-0.50
2019-01-18T01:39:51.617Z,-0.40
2019-01-18T01:42:42.819Z,-0.60
2019-01-18T01:45:32.049Z,-0.60
2019-01-18T01:48:20.724Z,-0.70
2019-01-18T01:51:08.743Z,-0.70
2019-01-18T01:53:56.085Z,-0.70
2019-01-18T01:56:44.388Z,-0.80
2019-01-18T01:59:32.783Z,-0.80
2019-01-18T02:02:20.639Z,-0.80
2019-01-18T02:05:10.250Z,-0.80
2019-01-18T02:07:59.179Z,-0.80
2019-01-18T02:10:48.329Z,-0.80
2019-01-18T02:13:36.476Z,-0.80
2019-01-18T02:16:26.847Z,-0.80
2019-01-18T02:19:16.745Z,-0.90
2019-01-18T02:22:06.620Z,-0.90
2019-01-18T02:24:54.241Z,-0.80
2019-01-18T02:27:43.036Z,-0.90
2019-01-18T02:30:30.831Z,-0.90
2019-01-18T02:33:18.555Z,-1.00
2019-01-18T02:36:07.462Z,-1.00
2019-01-18T02:38:56.120Z,-0.90
2019-01-18T02:41:43.643Z,-0.90
2019-01-18T02:44:31.881Z,-1.00
2019-01-18T02:47:21.621Z,-1.00
2019-01-18T02:50:09.982Z,-1.00
2019-01-18T02:52:57.258Z,-0.90
2019-01-18T02:55:44.458Z,-1.00
2019-01-18T02:58:31.961Z,-1.00
2019-01-18T03:01:19.731Z,-1.00
2019-01-18T03:04:08.844Z,-1.10
2019-01-18T03:06:56.342Z,-1.00
2019-01-18T03:09:44.102Z,-1.00
2019-01-18T03:12:31.610Z,-1.00
2019-01-18T03:15:18.819Z,-1.00
2019-01-18T03:18:06.201Z,-1.00
2019-01-18T03:20:55.106Z,-1.10
2019-01-18T03:23:42.987Z,-1.10
2019-01-18T03:26:30.570Z,-1.10
2019-01-18T03:29:17.929Z,-1.10
2019-01-18T03:32:05.751Z,-1.10
2019-01-18T03:34:53.779Z,-1.00
2019-01-18T03:37:41.509Z,-1.00
2019-01-18T03:40:29.034Z,-1.10
2019-01-18T03:43:16.764Z,-1.10
2019-01-18T03:46:04.023Z,-1.10
2019-01-18T03:48:51.427Z,-1.10
2019-01-18T03:51:40.393Z,-1.10
2019-01-18T03:54:28.028Z,-1.20
2019-01-18T03:57:16.120Z,-1.20
2019-01-18T04:00:04.845Z,-1.20
2019-01-18T04:02:52.731Z,-1.20
2019-01-18T04:05:42.159Z,-1.10
2019-01-18T04:08:29.668Z,-1.20
2019-01-18T04:11:16.905Z,-1.20
2019-01-18T04:14:04.811Z,-1.10
2019-01-18T04:16:58.217Z,-1.10
2019-01-18T04:19:45.618Z,-1.20
2019-01-18T04:22:34.787Z,-1.10
2019-01-18T04:25:30.323Z,-1.20
2019-01-18T04:28:19.322Z,-1.20
2019-01-18T04:31:10.992Z,-1.20
2019-01-18T04:33:58.587Z,-1.20
2019-01-18T04:36:46.443Z,-1.20
2019-01-18T04:39:35.543Z,-1.30
2019-01-18T04:42:24.017Z,-1.20
2019-01-18T04:45:11.611Z,-1.30
2019-01-18T04:47:59.138Z,-1.30
2019-01-18T04:50:46.480Z,-1.30
2019-01-18T04:53:36.400Z,-1.30
2019-01-18T04:56:25.306Z,-1.40
2019-01-18T04:59:18.780Z,-1.40
2019-01-18T05:02:06.039Z,-1.40
2019-01-18T05:04:56.118Z,-1.40
2019-01-18T05:07:46.215Z,-1.40
2019-01-18T05:10:33.552Z,-1.50
2019-01-18T05:13:22.089Z,-1.40
2019-01-18T05:16:11.445Z,-1.40
2019-01-18T05:18:59.157Z,-1.40
2019-01-18T05:21:51.150Z,-1.40
2019-01-18T05:24:39.469Z,-1.40
2019-01-18T05:27:27.331Z,-1.50
2019-01-18T05:30:20.400Z,-1.40
2019-01-18T05:33:08.083Z,-1.40
2019-01-18T05:35:58.323Z,-1.50
2019-01-18T05:38:47.488Z,-1.50
2019-01-18T05:41:35.153Z,-1.40
2019-01-18T05:44:24.099Z,-1.40
2019-01-18T05:47:12.553Z,-1.40
2019-01-18T05:50:13.160Z,-1.40
2019-01-18T05:53:05.802Z,-1.40
2019-01-18T05:55:53.669Z,-1.40
2019-01-18T05:58:41.174Z,-1.30
2019-01-18T06:01:28.756Z,-1.40
2019-01-18T06:04:16.725Z,-1.40
2019-01-18T06:07:04.447Z,-1.30
2019-01-18T06:09:52.310Z,-1.40
2019-01-18T06:12:40.109Z,-1.40
2019-01-18T06:15:27.781Z,-1.40
2019-01-18T06:18:15.499Z,-1.40
2019-01-18T06:21:05.379Z,-1.40
2019-01-18T06:23:57.529Z,-1.30
2019-01-18T06:27:06.567Z,-1.40
2019-01-18T06:29:55.297Z,-1.30
2019-01-18T06:32:47.842Z,-1.30
2019-01-18T06:35:34.861Z,-1.30
2019-01-18T06:38:25.299Z,-1.40
2019-01-18T06:41:21.862Z,-1.40
2019-01-18T06:44:09.317Z,-1.40
2019-01-18T06:46:59.412Z,-1.40
2019-01-18T06:49:46.735Z,-1.40
2019-01-18T06:52:34.025Z,-1.40
2019-01-18T06:55:23.933Z,-1.40
2019-01-18T06:58:11.491Z,-1.40
2019-01-18T07:00:59.455Z,-1.40
2019-01-18T07:03:47.079Z,-1.40
2019-01-18T07:06:34.927Z,-1.30
2019-01-18T07:09:22.524Z,-1.30
2019-01-18T07:12:09.888Z,-1.40
2019-01-18T07:14:57.372Z,-1.40
2019-01-18T07:17:45.329Z,-1.40
2019-01-18T07:20:33.280Z,-1.30
2019-01-18T07:23:22.390Z,-1.30
2019-01-18T07:26:10.449Z,-1.30
2019-01-18T07:28:58.645Z,-1.30
2019-01-18T07:31:46.248Z,-1.30
2019-01-18T07:34:34.609Z,-1.20
2019-01-18T07:37:22.623Z,-1.30
2019-01-18T07:40:10.799Z,-1.30
2019-01-18T07:42:58.397Z,-1.30
2019-01-18T07:45:47.569Z,-1.30
2019-01-18T07:48:35.329Z,-1.30
2019-01-18T07:51:24.377Z,-1.30
2019-01-18T07:54:12.931Z,-1.30
2019-01-18T07:57:00.715Z,-1.30
2019-01-18T07:59:47.858Z,-1.30
2019-01-18T08:02:35.775Z,-1.20
2019-01-18T08:05:25.447Z,-1.20
2019-01-18T08:08:13.037Z,-1.20
2019-01-18T08:11:01.043Z,-1.30
2019-01-18T08:13:48.783Z,-1.20
2019-01-18T08:16:38.775Z,-1.30
2019-01-18T08:19:26.313Z,-1.20
2019-01-18T08:22:13.718Z,-1.20
2019-01-18T08:25:01.347Z,-1.20
2019-01-18T08:27:49.312Z,-1.20
2019-01-18T08:30:37.143Z,-1.20
2019-01-18T08:33:26.188Z,-1.20
2019-01-18T08:36:15.963Z,-1.10
2019-01-18T08:39:06.811Z,-1.00
2019-01-18T08:41:54.375Z,-1.00
2019-01-18T08:44:41.935Z,-1.00
2019-01-18T08:47:30.875Z,-0.90
2019-01-18T08:50:19.157Z,-0.90
2019-01-18T08:53:08.936Z,-0.70
2019-01-18T08:55:56.209Z,-0.70
2019-01-18T08:58:43.824Z,-0.60
2019-01-18T09:01:35.732Z,-0.60
2019-01-18T09:04:20.508Z,-0.50
2019-01-18T09:07:09.034Z,-0.40
2019-01-18T09:09:56.375Z,-0.40
2019-01-18T09:12:43.899Z,-0.30
2019-01-18T09:15:31.290Z,-0.10
2019-01-18T09:18:20.183Z,0.00
2019-01-18T09:21:11.275Z,0.30
2019-01-18T09:23:59.960Z,0.40
2019-01-18T09:26:47.289Z,0.50
2019-01-18T09:29:37.874Z,0.40
2019-01-18T09:32:28.112Z,0.30
2019-01-18T09:35:16.413Z,0.30
2019-01-18T09:38:09.006Z,0.20
2019-01-18T09:41:07.898Z,0.20
2019-01-18T09:43:56.267Z,0.20
2019-01-18T09:46:45.384Z,0.30
2019-01-18T09:49:34.894Z,0.30
2019-01-18T09:52:23.715Z,0.30
2019-01-18T09:55:11.472Z,0.40
2019-01-18T09:58:02.808Z,0.40
2019-01-18T10:00:53.231Z,0.50
2019-01-18T10:03:42.691Z,0.60
2019-01-18T10:06:30.699Z,0.60
2019-01-18T10:09:18.703Z,0.70
2019-01-18T10:12:06.336Z,0.80
2019-01-18T10:14:54.011Z,1.00
2019-01-18T10:17:42.968Z,1.00
2019-01-18T10:20:30.830Z,1.10
2019-01-18T10:23:19.783Z,1.10
2019-01-18T10:26:10.669Z,1.20
2019-01-18T10:28:58.735Z,1.30
2019-01-18T10:31:46.158Z,1.30
2019-01-18T10:34:34.007Z,1.40
2019-01-18T10:37:21.635Z,1.40
2019-01-18T10:40:09.718Z,1.40
2019-01-18T10:42:59.607Z,1.50
2019-01-18T10:45:47.029Z,1.50
2019-01-18T10:48:34.693Z,1.50
2019-01-18T10:51:22.139Z,1.60
2019-01-18T10:54:11.864Z,1.60
2019-01-18T10:56:59.857Z,1.60
2019-01-18T10:59:49.024Z,1.60
2019-01-18T11:02:42.685Z,1.70
2019-01-18T11:05:30.854Z,1.80
2019-01-18T11:08:22.908Z,1.80
2019-01-18T11:11:10.542Z,1.90
2019-01-18T11:13:58.104Z,1.90
2019-01-18T11:16:48.097Z,1.90
2019-01-18T11:19:35.971Z,2.00
2019-01-18T11:22:23.567Z,2.00
2019-01-18T11:25:11.353Z,2.00
2019-01-18T11:28:00.530Z,2.10
2019-01-18T11:30:52.663Z,2.10
2019-01-18T11:33:40.538Z,2.20
2019-01-18T11:36:28.041Z,2.30
2019-01-18T11:39:19.352Z,2.30
2019-01-18T11:42:07.586Z,2.40
2019-01-18T11:44:57.293Z,2.40
2019-01-18T11:47:46.738Z,2.50
2019-01-18T11:50:35.134Z,2.50
2019-01-18T11:53:22.602Z,2.50
2019-01-18T11:56:10.144Z,2.60
2019-01-18T11:58:57.980Z,2.70
2019-01-18T12:01:45.879Z,2.70
2019-01-18T12:04:33.040Z,2.70
2019-01-18T12:07:21.788Z,2.80
2019-01-18T12:10:14.887Z,2.90
2019-01-18T12:13:02.522Z,2.90
2019-01-18T12:15:51.221Z,2.90
2019-01-18T12:18:38.860Z,2.90
2019-01-18T12:21:28.059Z,3.00
2019-01-18T12:24:15.919Z,3.00
2019-01-18T12:27:03.272Z,3.10
2019-01-18T12:29:50.831Z,3.10
2019-01-18T12:32:39.654Z,3.10
2019-01-18T12:35:27.167Z,3.20
2019-01-18T12:38:15.165Z,3.20
2019-01-18T12:41:02.819Z,3.40
2019-01-18T12:43:50.658Z,3.60
2019-01-18T12:46:38.224Z,3.90
2019-01-18T12:49:25.509Z,4.20
2019-01-18T12:52:13.307Z,4.30
2019-01-18T12:55:06.319Z,4.40
2019-01-18T12:58:00.814Z,4.50
2019-01-18T13:00:48.499Z,4.50
2019-01-18T13:03:36.388Z,4.50
2019-01-18T13:06:27.297Z,4.60
2019-01-18T13:09:14.899Z,4.50
2019-01-18T13:12:02.527Z,4.40
2019-01-18T13:14:50.130Z,4.90
2019-01-18T13:17:40.079Z,4.60
2019-01-18T13:20:27.531Z,4.40
2019-01-18T13:23:14.983Z,4.10
2019-01-18T13:26:02.450Z,4.00
2019-01-18T13:28:50.003Z,4.30
2019-01-18T13:31:44.939Z,4.40
2019-01-18T13:34:32.627Z,4.30
2019-01-18T13:37:19.954Z,4.30
2019-01-18T13:40:15.123Z,4.70
2019-01-18T13:43:02.327Z,5.20
2019-01-18T13:45:52.718Z,5.00
2019-01-18T13:48:40.028Z,4.70
2019-01-18T13:51:29.937Z,4.30
2019-01-18T13:54:18.141Z,4.20
2019-01-18T13:57:05.784Z,4.00
2019-01-18T13:59:53.256Z,3.90
2019-01-18T14:02:48.226Z,3.90
2019-01-18T14:05:30.946Z,3.90
2019-01-18T14:08:19.018Z,3.90
2019-01-18T14:11:11.561Z,3.90
2019-01-18T14:13:59.428Z,3.90
2019-01-18T14:16:46.651Z,4.00
2019-01-18T14:19:34.439Z,4.00
2019-01-18T14:22:24.542Z,3.90
2019-01-18T14:25:12.114Z,3.90
2019-01-18T14:27:59.607Z,3.90
2019-01-18T14:30:53.682Z,3.90
2019-01-18T14:33:41.111Z,3.70
2019-01-18T14:36:29.974Z,3.70
2019-01-18T14:39:17.515Z,3.60
2019-01-18T14:42:05.055Z,3.60
2019-01-18T14:44:52.601Z,3.60
2019-01-18T14:47:40.046Z,3.60
2019-01-18T14:50:28.064Z,3.60
2019-01-18T14:53:16.139Z,3.60
2019-01-18T14:56:08.238Z,3.60
2019-01-18T14:58:56.102Z,3.50
2019-01-18T15:01:43.742Z,3.50
2019-01-18T15:04:31.951Z,3.50
2019-01-18T15:07:19.080Z,3.40
2019-01-18T15:10:08.642Z,3.40
2019-01-18T15:13:04.823Z,3.30
2019-01-18T15:15:52.528Z,3.20
2019-01-18T15:18:40.251Z,3.00
2019-01-18T15:21:27.761Z,2.90
2019-01-18T15:24:17.938Z,2.90
2019-01-18T15:27:06.295Z,2.90
2019-01-18T15:29:54.010Z,2.80
2019-01-18T15:32:41.740Z,2.70
2019-01-18T15:35:39.650Z,2.60
2019-01-18T15:38:26.934Z,2.50
2019-01-18T15:41:14.429Z,2.40
2019-01-18T15:44:03.756Z,2.30
2019-01-18T15:46:51.163Z,2.30
2019-01-18T15:49:39.043Z,2.30
2019-01-18T15:52:28.492Z,2.30
2019-01-18T15:55:16.252Z,2.30
2019-01-18T15:58:03.749Z,2.40
2019-01-18T16:00:52.320Z,2.40
2019-01-18T16:03:40.068Z,2.40
2019-01-18T16:06:27.328Z,2.40
2019-01-18T16:09:15.263Z,2.40
2019-01-18T16:12:04.115Z,2.40
2019-01-18T16:14:51.641Z,2.40
2019-01-18T16:17:39.445Z,2.40
2019-01-18T16:20:26.746Z,2.30
2019-01-18T16:23:14.384Z,2.30
2019-01-18T16:26:03.148Z,2.40
2019-01-18T16:28:50.608Z,2.30
2019-01-18T16:31:38.116Z,2.30
2019-01-18T16:34:28.264Z,2.30
2019-01-18T16:37:15.852Z,2.30
2019-01-18T16:40:04.509Z,2.40
2019-01-18T16:42:56.296Z,2.30
2019-01-18T16:45:43.865Z,2.30
2019-01-18T16:48:31.291Z,2.30
2019-01-18T16:51:19.045Z,2.30
2019-01-18T16:54:06.573Z,2.30
2019-01-18T16:56:54.082Z,2.30
2019-01-18T16:59:42.888Z,2.30
2019-01-18T17:02:30.440Z,2.30
2019-01-18T17:05:18.358Z,2.30
2019-01-18T17:08:06.287Z,2.30
2019-01-18T17:10:57.259Z,2.30
2019-01-18T17:13:44.956Z,2.30
2019-01-18T17:16:32.959Z,2.30
2019-01-18T17:19:20.708Z,2.30
2019-01-18T17:22:09.054Z,2.20
2019-01-18T17:24:56.903Z,2.20
2019-01-18T17:27:45.499Z,2.20
2019-01-18T17:30:33.187Z,2.20
2019-01-18T17:33:22.037Z,2.10
2019-01-18T17:36:31.441Z,2.10
2019-01-18T17:39:53.266Z,2.10
2019-01-18T17:42:55.773Z,2.00
2019-01-18T17:46:13.704Z,1.90
2019-01-18T17:49:37.503Z,1.80
2019-01-18T17:53:07.609Z,1.80
2019-01-18T17:56:20.793Z,1.70
2019-01-18T17:59:40.268Z,1.70
2019-01-18T18:03:09.117Z,1.70
2019-01-18T18:06:32.407Z,1.70
2019-01-18T18:09:28.986Z,1.80
2019-01-18T18:12:45.988Z,1.90
2019-01-18T18:16:17.112Z,1.90
2019-01-18T18:19:20.721Z,1.90
2019-01-18T18:22:48.813Z,1.90
2019-01-18T18:25:54.915Z,1.90
2019-01-18T18:29:26.327Z,2.00
2019-01-18T18:33:28.929Z,2.00
2019-01-18T18:36:57.187Z,1.90
2019-01-18T18:40:34.567Z,1.90
2019-01-18T18:43:49.988Z,1.90
2019-01-18T18:47:11.207Z,1.90
2019-01-18T18:50:54.143Z,1.80
2019-01-18T18:54:22.811Z,1.70
2019-01-18T18:57:24.160Z,1.70
2019-01-18T19:00:23.298Z,1.60
2019-01-18T19:03:41.204Z,1.60
2019-01-18T19:07:28.393Z,1.60
2019-01-18T19:10:57.429Z,1.60
2019-01-18T19:14:14.180Z,1.50
2019-01-18T19:17:34.405Z,1.40
2019-01-18T19:20:46.580Z,1.40
2019-01-18T19:24:07.991Z,1.40
2019-01-18T19:27:23.237Z,1.40
2019-01-18T19:30:28.888Z,1.40
2019-01-18T19:33:48.856Z,1.40
2019-01-18T19:37:03.139Z,1.30
2019-01-18T19:40:28.287Z,1.30
2019-01-18T19:43:31.519Z,1.20
2019-01-18T19:46:52.067Z,1.00
2019-01-18T19:50:07.712Z,0.90
2019-01-18T19:53:28.460Z,0.90
2019-01-18T19:56:55.340Z,0.70
2019-01-18T20:00:12.789Z,0.70
2019-01-18T20:03:18.954Z,0.60
2019-01-18T20:07:06.242Z,0.60
2019-01-18T20:10:31.347Z,0.50
2019-01-18T20:13:50.325Z,0.40
2019-01-18T20:17:05.803Z,0.50
2019-01-18T20:20:16.505Z,0.40
2019-01-18T20:23:42.475Z,0.40
2019-01-18T20:27:05.967Z,0.30
2019-01-18T20:30:41.380Z,0.30
2019-01-18T20:34:18.308Z,0.10
2019-01-18T20:37:10.464Z,0.10
2019-01-18T20:40:45.179Z,0.00
2019-01-18T20:44:10.598Z,-0.10
2019-01-18T20:47:31.115Z,-0.20
2019-01-18T20:50:43.212Z,-0.40
2019-01-18T20:54:08.252Z,-0.50
2019-01-18T20:57:25.153Z,-0.60
2019-01-18T21:01:09.011Z,-0.60
2019-01-18T21:04:36.555Z,-0.70
2019-01-18T21:08:22.784Z,-0.70
2019-01-18T21:11:29.657Z,-0.80
2019-01-18T21:14:50.359Z,-0.90
2019-01-18T21:18:02.088Z,-1.00
2019-01-18T21:21:29.459Z,-1.00
2019-01-18T21:24:51.239Z,-1.00
2019-01-18T21:28:33.396Z,-1.00
2019-01-18T21:31:38.229Z,-1.00
2019-01-18T21:35:03.974Z,-0.80
2019-01-18T21:38:43.171Z,-0.80
2019-01-18T21:42:04.375Z,-0.60
2019-01-18T21:45:33.317Z,-0.50
2019-01-18T21:48:30.383Z,-0.40
2019-01-18T21:51:47.703Z,-0.30
2019-01-18T21:55:06.279Z,-0.30
2019-01-18T21:58:40.922Z,-0.30
2019-01-18T22:01:47.631Z,-0.40
2019-01-18T22:05:19.378Z,-0.50
2019-01-18T22:08:35.916Z,-0.70
2019-01-18T22:11:36.321Z,-0.80
2019-01-18T22:14:57.948Z,-1.00
2019-01-18T22:18:05.041Z,-1.00
2019-01-18T22:21:44.356Z,-1.10
2019-01-18T22:25:11.733Z,-1.20
2019-01-18T22:28:20.279Z,-1.20
2019-01-18T22:31:41.468Z,-1.30
2019-01-18T22:34:52.104Z,-1.30
2019-01-18T22:38:03.107Z,-1.40
2019-01-18T22:41:17.572Z,-1.40
2019-01-18T22:44:40.780Z,-1.50
2019-01-18T22:48:21.578Z,-1.50
2019-01-18T22:51:51.899Z,-1.60
2019-01-18T22:55:03.103Z,-1.50
2019-01-18T22:58:20.600Z,-1.40
2019-01-18T23:01:37.841Z,-1.50
2019-01-18T23:04:46.854Z,-1.50
2019-01-18T23:08:03.932Z,-1.60
2019-01-18T23:11:14.439Z,-1.60
2019-01-18T23:14:34.255Z,-1.60
2019-01-18T23:17:56.094Z,-1.50
2019-01-18T23:21:24.939Z,-1.60
2019-01-18T23:24:29.085Z,-1.60
2019-01-18T23:28:00.031Z,-1.70
2019-01-18T23:30:56.671Z,-1.70
2019-01-18T23:33:53.545Z,-1.70
2019-01-18T23:37:10.586Z,-1.80
2019-01-18T23:40:29.512Z,-1.80
2019-01-18T23:43:36.846Z,-1.90
2019-01-18T23:46:59.348Z,-1.90
2019-01-18T23:50:39.063Z,-1.90
2019-01-18T23:53:49.529Z,-2.00
2019-01-18T23:57:09.329Z,-2.00
